Aérodrome :
LOGIN :

S'inscrire | Disclaimer

   EN    FR    IT 

 










Légende :    VFR   VFR Marginal   IFR   IFR Intensif   IFR Très Intensif
Visi : 
Plafond : 
>= 8 km
>= 3000ft
5 à 8 km
1000 à 3000 ft
1500m à 5 km
500 à 1000 ft
800 à 1500m
200 à 500 ft
< 800m
< 200 ft
Symboles :   Orages  Brouillard  Fortes neiges  Fortes précipitations  Vent > 20 kt
SIGMETs :   Divers  Orages  Givrage  Turbulence  Onde Orograph.  Cendres Volcan.






- Altitude de l'aérodrome : 1830 ft


EBLB - Butgenbach Elsenborn

DERNIER METAR :
  • 301912Z AUTO 29005KT 9999 -RA SCT006/// BKN036/// BKN098/// 11/11 Q1014 YLO

METARs EXPIRÉS :
  • 301855Z AUTO 25007KT 9999 -RA BKN007/// OVC033/// 12/11 Q1015 GRN
  • 301825Z AUTO 29005KT 9999 SCT007/// BKN032/// 12/11 Q1014 GRN
  • 301755Z AUTO 27006KT 9999 BKN008/// BKN029/// BKN075/// 12/11 Q1014 GRN
  • 301725Z AUTO 26009G19KT 9999 OVC005/// 12/11 Q1014 YLO
  • 301655Z AUTO 29010KT 9999 -RA OVC006/// 12/11 Q1014 YLO
  • 301636Z AUTO 29010KT 9999 OVC006/// 13/11 Q1013 YLO
  • 301625Z AUTO 28011KT 9999 OVC007/// 13/11 Q1013 GRN

Prévision TAF périmée.



MET'MAP, la Météo Aéronautique d'un coup d'oeil ! - Copyright ORBIFLY Décembre 2007 - Disclaimer

ORBIFLY MET'MAP TEAM :

Programmation & Développement : Alexandra Zaïnal
Sur une idée originale de : Baudouin d'Aumeries
Soutien technique & logistique : Manuel Goepfert
Assistance : Marc-Olivier Méhu




SOURCES & CREDITS :

   NOAA